Burtrum, Minnesota
Current Conditions -  °F | °C
As of 6:26 PM on Wednesday 26 Nov 2014 (Local Time) from K14Y Reporting Station
Overcast Overcast  
Wind Chill: -3°   Ceiling: 10000
Heat Index: 12°   Visibility: 10mi
Dew Point:   Wind: 14mph
Humidity: 67%   Direction: 290°WNW
Pressure: 30.34"   Gusts: 20mph
Location:  45.87°N, 94.69°W
Report Text: K14Y 270026Z AUTO 29012G17KT 10SM OVC100 M11/M16 A3034 RMK AO2
Loading
Personal Weather Stations






























Interactive Weather Map New forecast layout! Learn more

10-Day Weather Forecast

Advertisements
Track Severe Weather on mobile